| time (UTC) | temp F | wind direction | speed MPH | gust MPH | rain 1hr in | rain 24hr in | rain mn in | humidity % | barometer mb |
| 20260507050024 | 43 | 350 | 0.0 | 3.0 | 0.00 | 0.22 | 0.00 | 92 | 1011.9 |
| 20260507044543 | 42 | 341 | 0.0 | 3.0 | 0.00 | 0.23 | 0.00 | 92 | 1011.7 |
| 20260507043011 | 42 | 343 | 1.0 | 5.0 | 0.00 | 0.23 | 0.00 | 92 | 1011.5 |
| 20260507041541 | 42 | 340 | 1.0 | 5.0 | 0.00 | 0.23 | 0.00 | 92 | 1011.4 |
| 20260507040013 | 42 | 336 | 1.0 | 3.0 | 0.00 | 0.23 | 0.00 | 93 | 1011.4 |
| 20260507034551 | 41 | 340 | 0.0 | 4.0 | 0.00 | 0.23 | 0.00 | 93 | 1011.2 |
| 20260507033021 | 41 | 331 | 1.0 | 3.0 | 0.00 | 0.23 | 0.00 | 93 | 1011.2 |
| 20260507031604 | 40 | 331 | 0.0 | 2.0 | 0.00 | 0.23 | 0.00 | 93 | 1011.0 |
| 20260507030027 | 40 | 330 | 0.0 | 3.0 | 0.00 | 0.23 | 0.00 | 92 | 1010.9 |
| 20260507024502 | 40 | 331 | 0.0 | 3.0 | 0.00 | 0.24 | 0.00 | 93 | 1010.8 |
| 20260507023038 | 40 | 331 | 0.0 | 1.0 | 0.00 | 0.24 | 0.00 | 92 | 1010.7 |
| 20260507021512 | 40 | 331 | 0.0 | 2.0 | 0.00 | 0.24 | 0.00 | 92 | 1010.7 |
| 20260507020050 | 41 | 331 | 0.0 | 2.0 | 0.00 | 0.24 | 0.00 | 92 | 1010.5 |
| 20260507014531 | 42 | 331 | 0.0 | 2.0 | 0.00 | 0.27 | 0.00 | 92 | 1010.5 |
| 20260507013058 | 42 | 331 | 0.0 | 2.0 | 0.00 | 0.27 | 0.00 | 92 | 1010.4 |
| 20260507011533 | 43 | 331 | 0.0 | 1.0 | 0.00 | 0.27 | 0.00 | 92 | 1010.3 |
| 20260507010007 | 44 | 331 | 0.0 | 2.0 | 0.00 | 0.27 | 0.00 | 92 | 1010.2 |
| 20260507004541 | 45 | 331 | 0.0 | 1.0 | 0.00 | 0.27 | 0.00 | 92 | 1010.1 |
| 20260507003015 | 45 | 331 | 0.0 | 2.0 | 0.00 | 0.27 | 0.00 | 92 | 1010.1 |
| 20260507001557 | 46 | 331 | 0.0 | 1.0 | 0.00 | 0.27 | 0.00 | 92 | 1009.9 |
| 20260507000035 | 46 | 331 | 0.0 | 2.0 | 0.00 | 0.27 | 0.00 | 92 | 1009.9 |
| 20260506234604 | 47 | 331 | 0.0 | 1.0 | 0.00 | 0.27 | 0.00 | 92 | 1009.8 |
| 20260506233042 | 47 | 329 | 0.0 | 3.0 | 0.00 | 0.27 | 0.00 | 92 | 1009.8 |
| 20260506231512 | 47 | 333 | 0.0 | 3.0 | 0.00 | 0.27 | 0.00 | 92 | 1009.8 |
| 20260506230040 | 47 | 326 | 1.0 | 4.0 | 0.00 | 0.27 | 0.00 | 92 | 1009.7 |
| 20260506224514 | 47 | 321 | 0.0 | 4.0 | 0.00 | 0.27 | 0.00 | 91 | 1009.6 |
| 20260506223043 | 47 | 317 | 0.0 | 2.0 | 0.00 | 0.27 | 0.00 | 91 | 1009.7 |
| 20260506221520 | 47 | 306 | 0.0 | 2.0 | 0.00 | 0.27 | 0.00 | 91 | 1009.6 |
| 20260506220055 | 47 | 332 | 0.0 | 4.0 | 0.00 | 0.27 | 0.00 | 91 | 1009.7 |
| 20260506214530 | 47 | 317 | 0.0 | 2.0 | 0.00 | 0.27 | 0.27 | 91 | 1009.5 |
| 20260506213005 | 47 | 321 | 0.0 | 1.0 | 0.00 | 0.27 | 0.27 | 90 | 1009.4 |
| 20260506211542 | 47 | 321 | 0.0 | 2.0 | 0.00 | 0.27 | 0.27 | 90 | 1009.3 |
| 20260506210016 | 47 | 319 | 0.0 | 3.0 | 0.00 | 0.27 | 0.27 | 90 | 1009.2 |
| 20260506204555 | 47 | 318 | 0.0 | 2.0 | 0.00 | 0.27 | 0.27 | 90 | 1009.1 |
| 20260506203029 | 47 | 312 | 0.0 | 1.0 | 0.00 | 0.27 | 0.27 | 90 | 1009.2 |
| 20260506201505 | 47 | 305 | 0.0 | 3.0 | 0.00 | 0.27 | 0.27 | 90 | 1009.1 |
| 20260506200043 | 47 | 315 | 0.0 | 2.0 | 0.00 | 0.27 | 0.27 | 90 | 1009.1 |
| 20260506194519 | 47 | 320 | 0.0 | 3.0 | 0.00 | 0.27 | 0.27 | 90 | 1009.1 |
| 20260506193104 | 47 | 313 | 0.0 | 3.0 | 0.00 | 0.27 | 0.27 | 89 | 1008.9 |
| 20260506191528 | 47 | 317 | 0.0 | 3.0 | 0.01 | 0.27 | 0.27 | 90 | 1008.9 |
| 20260506190003 | 47 | 319 | 0.0 | 2.0 | 0.01 | 0.27 | 0.27 | 90 | 1008.7 |
| 20260506184539 | 47 | 319 | 1.0 | 4.0 | 0.02 | 0.27 | 0.27 | 90 | 1008.6 |
| 20260506183015 | 47 | 325 | 0.0 | 3.0 | 0.02 | 0.27 | 0.27 | 90 | 1008.5 |
| 20260506181551 | 47 | 340 | 1.0 | 4.0 | 0.02 | 0.26 | 0.26 | 89 | 1008.3 |
| 20260506180027 | 47 | 5 | 0.0 | 2.0 | 0.03 | 0.26 | 0.26 | 89 | 1008.2 |
| 20260506174501 | 47 | 360 | 0.0 | 4.0 | 0.02 | 0.25 | 0.25 | 88 | 1008.1 |
| 20260506173040 | 47 | 345 | 2.0 | 5.0 | 0.02 | 0.24 | 0.24 | 88 | 1008.1 |
| 20260506171513 | 48 | 5 | 3.0 | 9.0 | 0.02 | 0.24 | 0.24 | 87 | 1008.0 |
| 20260506170104 | 48 | 347 | 1.0 | 5.0 | 0.01 | 0.23 | 0.23 | 87 | 1007.9 |
| 20260506164527 | 48 | 351 | 1.0 | 5.0 | 0.02 | 0.23 | 0.23 | 86 | 1007.9 |
| 20260506163003 | 48 | 346 | 0.0 | 4.0 | 0.02 | 0.22 | 0.22 | 86 | 1007.9 |
| 20260506161539 | 48 | 38 | 2.0 | 5.0 | 0.02 | 0.22 | 0.22 | 85 | 1007.9 |
| 20260506160020 | 48 | 15 | 1.0 | 4.0 | 0.02 | 0.22 | 0.22 | 84 | 1008.0 |
| 20260506154609 | 48 | 11 | 1.0 | 5.0 | 0.02 | 0.21 | 0.21 | 85 | 1008.0 |
| 20260506153029 | 48 | 360 | 1.0 | 6.0 | 0.02 | 0.20 | 0.20 | 85 | 1008.0 |
| 20260506151504 | 48 | 34 | 2.0 | 4.0 | 0.03 | 0.20 | 0.20 | 85 | 1008.0 |
| 20260506150041 | 48 | 355 | 1.0 | 8.0 | 0.03 | 0.20 | 0.20 | 84 | 1008.0 |
| 20260506144516 | 48 | 23 | 1.0 | 5.0 | 0.03 | 0.19 | 0.19 | 86 | 1007.9 |
| 20260506143104 | 48 | 11 | 0.0 | 4.0 | 0.02 | 0.18 | 0.18 | 86 | 1007.8 |
| 20260506141532 | 48 | 5 | 1.0 | 5.0 | 0.02 | 0.17 | 0.17 | 85 | 1007.9 |
| 20260506140003 | 48 | 344 | 1.0 | 9.0 | 0.02 | 0.17 | 0.17 | 85 | 1007.8 |
| 20260506134542 | 47 | 26 | 2.0 | 6.0 | 0.02 | 0.16 | 0.16 | 84 | 1007.9 |
| 20260506133015 | 48 | 20 | 4.0 | 9.0 | 0.03 | 0.16 | 0.16 | 85 | 1007.9 |
| 20260506131552 | 48 | 336 | 1.0 | 6.0 | 0.04 | 0.15 | 0.15 | 86 | 1007.9 |
| 20260506130030 | 48 | 355 | 1.0 | 6.0 | 0.04 | 0.14 | 0.14 | 85 | 1007.8 |
| 20260506124555 | 47 | 338 | 2.0 | 6.0 | 0.05 | 0.13 | 0.13 | 86 | 1007.7 |
| 20260506123034 | 47 | 347 | 0.0 | 10.0 | 0.05 | 0.13 | 0.13 | 85 | 1007.7 |
| 20260506121505 | 47 | 5 | 2.0 | 10.0 | 0.05 | 0.11 | 0.11 | 85 | 1007.6 |
| 20260506120041 | 47 | 27 | 3.0 | 8.0 | 0.05 | 0.10 | 0.10 | 84 | 1007.6 |
| 20260506114513 | 47 | 33 | 2.0 | 9.0 | 0.04 | 0.09 | 0.09 | 83 | 1007.3 |
| 20260506073109 | 50 | 69 | 8.0 | 16.0 | 0.00 | 0.05 | 0.05 | 71 | 1006.2 |
| 20260506071535 | 49 | 82 | 5.0 | 14.0 | 0.00 | 0.05 | 0.05 | 72 | 1006.0 |
| 20260506061552 | 48 | 329 | 2.0 | 8.0 | 0.00 | 0.05 | 0.05 | 78 | 1006.0 |